createdAt,value
2017-08-16T00:01:56.198Z,86.90
2017-08-16T00:04:23.741Z,87.20
2017-08-16T00:06:52.093Z,88.40
2017-08-16T00:09:19.647Z,87.90
2017-08-16T00:11:47.177Z,88.00
2017-08-16T00:14:14.759Z,87.80
2017-08-16T00:16:42.293Z,87.80
2017-08-16T00:19:09.829Z,88.10
2017-08-16T00:21:37.419Z,88.20
2017-08-16T00:24:04.976Z,88.10
2017-08-16T00:26:32.536Z,87.80
2017-08-16T00:29:00.103Z,88.20
2017-08-16T00:31:27.647Z,88.00
2017-08-16T00:33:55.961Z,88.00
2017-08-16T00:36:23.550Z,87.80
2017-08-16T00:38:51.104Z,87.80
2017-08-16T00:41:18.638Z,87.60
2017-08-16T00:43:46.208Z,87.90
2017-08-16T00:46:13.741Z,87.70
2017-08-16T00:48:41.313Z,88.00
2017-08-16T00:51:08.903Z,88.10
2017-08-16T00:53:36.439Z,88.30
2017-08-16T00:56:04.006Z,88.30
2017-08-16T00:58:31.580Z,88.20
2017-08-16T01:00:59.141Z,88.20
2017-08-16T01:03:26.699Z,88.20
2017-08-16T01:05:54.258Z,88.20
2017-08-16T01:08:21.794Z,88.00
2017-08-16T01:10:50.327Z,87.90
2017-08-16T01:13:18.016Z,87.90
2017-08-16T01:15:46.397Z,87.80
2017-08-16T01:18:14.119Z,87.90
2017-08-16T01:20:41.680Z,87.90
2017-08-16T01:23:09.206Z,87.80
2017-08-16T01:25:37.518Z,87.80
2017-08-16T01:28:05.077Z,87.70
2017-08-16T01:30:32.613Z,87.80
2017-08-16T01:33:00.910Z,88.10
2017-08-16T01:35:28.472Z,88.10
2017-08-16T01:37:56.004Z,88.00
2017-08-16T01:40:24.338Z,88.00
2017-08-16T01:42:51.928Z,87.90
2017-08-16T01:45:19.466Z,87.90
2017-08-16T01:47:47.018Z,87.90
2017-08-16T01:50:14.592Z,88.00
2017-08-16T01:52:42.141Z,87.90
2017-08-16T01:55:09.683Z,88.10
2017-08-16T01:57:37.253Z,88.20
2017-08-16T02:00:04.797Z,88.10
2017-08-16T02:02:32.328Z,88.10
2017-08-16T02:04:59.928Z,88.30
2017-08-16T02:07:27.483Z,88.20
2017-08-16T02:09:55.044Z,88.20
2017-08-16T02:12:22.608Z,88.00
2017-08-16T02:14:50.149Z,87.90
2017-08-16T02:17:18.452Z,87.80
2017-08-16T02:19:46.018Z,87.80
2017-08-16T02:22:13.560Z,87.90
2017-08-16T02:24:41.880Z,88.20
2017-08-16T02:27:09.482Z,88.20
2017-08-16T02:29:37.040Z,88.60
2017-08-16T02:32:04.601Z,88.70
2017-08-16T02:34:32.173Z,88.60
2017-08-16T02:36:59.712Z,88.40
2017-08-16T02:39:27.253Z,88.30
2017-08-16T02:41:54.849Z,88.10
2017-08-16T02:44:22.393Z,88.20
2017-08-16T02:46:49.922Z,88.10
2017-08-16T02:49:17.504Z,88.30
2017-08-16T02:51:45.080Z,88.10
2017-08-16T02:54:12.641Z,88.20
2017-08-16T02:56:40.224Z,88.10
2017-08-16T02:59:07.773Z,88.30
2017-08-16T03:01:35.310Z,88.30
2017-08-16T03:04:02.887Z,88.80
2017-08-16T03:06:30.436Z,88.70
2017-08-16T03:08:57.972Z,88.70
2017-08-16T03:11:25.548Z,88.40
2017-08-16T03:13:53.085Z,88.10
2017-08-16T03:16:20.636Z,88.00
2017-08-16T03:18:48.987Z,88.30
2017-08-16T03:21:16.534Z,88.20
2017-08-16T03:23:44.078Z,88.10
2017-08-16T03:26:11.663Z,87.70
2017-08-16T03:28:39.207Z,88.00
2017-08-16T03:31:06.772Z,87.90
2017-08-16T03:33:34.340Z,88.00
2017-08-16T03:36:01.890Z,88.00
2017-08-16T03:38:29.451Z,87.80
2017-08-16T03:40:57.032Z,88.20
2017-08-16T03:43:24.575Z,88.20
2017-08-16T03:45:52.114Z,88.70
2017-08-16T03:48:19.698Z,88.60
2017-08-16T03:50:47.271Z,88.30
2017-08-16T03:53:14.848Z,88.50
2017-08-16T03:55:42.419Z,88.60
2017-08-16T03:58:09.963Z,88.80
2017-08-16T04:00:37.492Z,88.80
2017-08-16T04:03:05.052Z,88.70
2017-08-16T04:05:32.612Z,88.40
2017-08-16T04:08:00.156Z,88.10
2017-08-16T04:10:28.501Z,87.80
2017-08-16T04:12:56.067Z,87.80
2017-08-16T04:15:23.908Z,87.40
2017-08-16T04:17:51.515Z,87.30
2017-08-16T04:20:19.831Z,88.20
2017-08-16T04:22:47.376Z,87.30
2017-08-16T04:25:14.956Z,87.40
2017-08-16T04:27:42.500Z,87.50
2017-08-16T04:30:10.053Z,87.80
2017-08-16T04:32:38.389Z,87.20
2017-08-16T04:35:05.947Z,87.20
2017-08-16T04:37:33.510Z,87.10
2017-08-16T04:40:01.094Z,87.20
2017-08-16T04:42:28.628Z,87.00
2017-08-16T04:44:56.178Z,87.00
2017-08-16T04:47:23.764Z,87.10
2017-08-16T04:49:51.303Z,87.00
2017-08-16T04:52:18.867Z,87.00
2017-08-16T04:54:46.432Z,87.10
2017-08-16T04:57:13.993Z,87.20
2017-08-16T04:59:41.563Z,87.00
2017-08-16T05:02:09.152Z,87.10
2017-08-16T05:04:36.696Z,86.90
2017-08-16T05:07:04.394Z,86.70
2017-08-16T05:09:32.766Z,86.20
2017-08-16T05:12:00.330Z,86.20
2017-08-16T05:14:27.904Z,85.70
2017-08-16T05:16:56.225Z,86.20
2017-08-16T05:19:23.786Z,86.10
2017-08-16T05:21:51.340Z,85.40
2017-08-16T05:24:18.921Z,85.60
2017-08-16T05:26:46.512Z,85.30
2017-08-16T05:29:14.050Z,85.40
2017-08-16T05:31:41.664Z,85.30
2017-08-16T05:34:09.214Z,85.00
2017-08-16T05:36:37.522Z,84.60
2017-08-16T05:39:05.103Z,84.60
2017-08-16T05:41:32.633Z,84.90
2017-08-16T05:44:00.161Z,84.40
2017-08-16T05:46:27.756Z,84.30
2017-08-16T05:48:55.315Z,84.40
2017-08-16T05:51:23.637Z,83.70
2017-08-16T05:53:51.208Z,83.70
2017-08-16T05:56:18.739Z,83.80
2017-08-16T05:58:46.302Z,84.50
2017-08-16T06:01:13.880Z,83.90
2017-08-16T06:03:41.432Z,83.40
2017-08-16T06:06:08.969Z,83.10
2017-08-16T06:08:36.530Z,83.00
2017-08-16T06:11:04.087Z,83.10
2017-08-16T06:13:32.386Z,83.50
2017-08-16T06:15:59.971Z,83.50
2017-08-16T06:18:27.521Z,83.00
2017-08-16T06:20:55.078Z,82.40
2017-08-16T06:23:22.638Z,82.20
2017-08-16T06:25:50.184Z,82.20
2017-08-16T06:28:17.726Z,81.40
2017-08-16T06:30:45.298Z,81.00
2017-08-16T06:33:12.832Z,81.30
2017-08-16T06:35:40.374Z,81.00
2017-08-16T06:38:07.937Z,81.20
2017-08-16T06:40:35.491Z,80.80
2017-08-16T06:43:03.031Z,80.80
2017-08-16T06:45:31.128Z,79.70
2017-08-16T06:47:58.665Z,79.30
2017-08-16T06:50:26.216Z,78.30
2017-08-16T06:52:53.780Z,79.20
2017-08-16T06:55:21.304Z,80.20
2017-08-16T06:57:48.841Z,77.60
2017-08-16T07:00:16.425Z,77.70
2017-08-16T07:02:43.971Z,77.90
2017-08-16T07:05:11.531Z,78.50
2017-08-16T07:07:39.089Z,78.70
2017-08-16T07:10:06.634Z,77.70
2017-08-16T07:12:34.173Z,77.20
2017-08-16T07:15:01.732Z,78.30
2017-08-16T07:17:29.273Z,78.30
2017-08-16T07:19:57.589Z,77.70
2017-08-16T07:22:25.158Z,77.70
2017-08-16T07:24:52.684Z,78.10
2017-08-16T07:27:20.226Z,78.60
2017-08-16T07:29:47.813Z,77.70
2017-08-16T07:32:15.349Z,76.60
2017-08-16T07:34:42.887Z,76.80
2017-08-16T07:37:10.459Z,76.60
2017-08-16T07:39:38.011Z,77.90
2017-08-16T07:42:05.570Z,77.50
2017-08-16T07:44:33.142Z,77.00
2017-08-16T07:47:00.716Z,77.70
2017-08-16T07:49:28.291Z,77.70
2017-08-16T07:51:56.634Z,77.00
2017-08-16T07:54:24.204Z,76.80
2017-08-16T07:56:51.741Z,77.20
2017-08-16T07:59:19.332Z,76.40
2017-08-16T08:01:46.865Z,77.20
2017-08-16T08:04:14.419Z,76.50
2017-08-16T08:06:41.991Z,76.10
2017-08-16T08:09:09.534Z,75.50
2017-08-16T08:11:37.087Z,76.00
2017-08-16T08:14:04.682Z,75.70
2017-08-16T08:16:32.226Z,75.20
2017-08-16T08:18:59.772Z,73.30
2017-08-16T08:21:27.364Z,72.00
2017-08-16T08:23:54.925Z,71.30
2017-08-16T08:26:22.468Z,70.80
2017-08-16T08:28:50.055Z,71.60
2017-08-16T08:31:17.589Z,71.80
2017-08-16T08:33:45.147Z,71.60
2017-08-16T08:36:12.735Z,72.40
2017-08-16T08:38:40.287Z,71.70
2017-08-16T08:41:07.821Z,71.40
2017-08-16T08:43:35.395Z,70.90
2017-08-16T08:46:02.924Z,70.70
2017-08-16T08:48:30.485Z,70.20
2017-08-16T08:50:58.837Z,68.90
2017-08-16T08:53:26.396Z,68.50
2017-08-16T08:55:53.925Z,69.60
2017-08-16T08:58:21.514Z,69.50
2017-08-16T09:00:49.056Z,69.50
2017-08-16T09:03:16.606Z,68.80
2017-08-16T09:05:44.185Z,68.30
2017-08-16T09:08:11.725Z,68.30
2017-08-16T09:10:39.277Z,68.70
2017-08-16T09:13:06.837Z,67.70
2017-08-16T09:15:34.378Z,68.50
2017-08-16T09:18:01.934Z,67.80
2017-08-16T09:20:29.527Z,67.40
2017-08-16T09:22:57.821Z,66.60
2017-08-16T09:25:25.352Z,66.60
2017-08-16T09:27:53.700Z,66.40
2017-08-16T09:30:21.251Z,66.30
2017-08-16T09:32:48.831Z,62.90
2017-08-16T09:35:16.392Z,65.10
2017-08-16T09:37:43.948Z,61.30
2017-08-16T09:40:11.473Z,60.30
2017-08-16T09:42:39.039Z,62.90
2017-08-16T09:45:06.633Z,60.80
2017-08-16T09:47:34.173Z,59.50
2017-08-16T09:50:01.749Z,59.10
2017-08-16T09:52:29.279Z,62.00
2017-08-16T09:54:56.827Z,59.00
2017-08-16T09:57:24.407Z,57.90
2017-08-16T09:59:51.954Z,58.20
2017-08-16T10:02:19.495Z,57.60
2017-08-16T10:04:47.850Z,58.40
2017-08-16T10:07:15.405Z,58.40
2017-08-16T10:09:42.967Z,57.10
2017-08-16T10:12:10.564Z,58.80
2017-08-16T10:14:38.889Z,58.00
2017-08-16T10:17:06.444Z,58.00
2017-08-16T10:19:34.010Z,56.80
2017-08-16T10:22:01.549Z,55.80
2017-08-16T10:24:29.164Z,56.90
2017-08-16T10:26:56.752Z,56.90
2017-08-16T10:29:25.059Z,57.00
2017-08-16T10:31:52.595Z,57.00
2017-08-16T10:34:20.946Z,57.90
2017-08-16T10:36:48.479Z,57.90
2017-08-16T10:39:22.013Z,56.50
2017-08-16T10:41:49.555Z,53.70
2017-08-16T10:44:17.111Z,54.20
2017-08-16T10:46:44.673Z,54.10
2017-08-16T10:49:12.217Z,54.00
2017-08-16T10:51:39.772Z,53.10
2017-08-16T10:54:07.354Z,54.10
2017-08-16T10:56:34.885Z,54.00
2017-08-16T10:59:02.453Z,54.10
2017-08-16T11:01:30.016Z,54.40
2017-08-16T11:03:57.598Z,53.40
2017-08-16T11:06:25.141Z,54.40
2017-08-16T11:08:52.728Z,53.50
2017-08-16T11:11:20.277Z,52.90
2017-08-16T11:13:47.835Z,53.20
2017-08-16T11:16:16.543Z,54.20
2017-08-16T11:18:44.099Z,54.30
2017-08-16T11:21:11.658Z,54.30
2017-08-16T11:23:39.230Z,51.60
2017-08-16T11:26:06.769Z,51.50
2017-08-16T11:28:34.309Z,51.30
2017-08-16T11:31:02.648Z,52.10
2017-08-16T11:33:30.182Z,52.10
2017-08-16T11:35:57.725Z,52.10
2017-08-16T11:38:25.289Z,52.60
2017-08-16T11:40:52.854Z,53.10
2017-08-16T11:43:20.387Z,50.00
2017-08-16T11:45:49.162Z,50.90
2017-08-16T11:48:16.729Z,50.90
2017-08-16T11:50:44.262Z,51.80
2017-08-16T11:53:11.832Z,52.00
2017-08-16T11:55:39.376Z,51.50
2017-08-16T11:58:06.930Z,49.90
2017-08-16T12:00:34.520Z,51.00
2017-08-16T12:03:02.130Z,50.00
2017-08-16T12:05:29.688Z,50.00
2017-08-16T12:07:57.262Z,48.50
2017-08-16T12:10:24.793Z,49.30
2017-08-16T12:12:53.097Z,50.20
2017-08-16T12:15:20.697Z,50.00
2017-08-16T12:17:48.229Z,50.00
2017-08-16T12:20:15.771Z,48.60
2017-08-16T12:22:44.098Z,48.60
2017-08-16T12:25:11.656Z,48.50
2017-08-16T12:27:39.186Z,50.30
2017-08-16T12:30:06.762Z,51.60
2017-08-16T12:32:34.289Z,50.10
2017-08-16T12:35:02.679Z,51.30
2017-08-16T12:37:31.001Z,51.40
2017-08-16T12:39:58.536Z,52.00
2017-08-16T12:42:26.072Z,51.60
2017-08-16T12:44:54.424Z,50.00
2017-08-16T12:47:21.976Z,50.00
2017-08-16T12:49:49.521Z,49.50
2017-08-16T12:52:17.109Z,50.50
2017-08-16T12:54:44.649Z,50.60
2017-08-16T12:57:12.207Z,50.20
2017-08-16T12:59:39.774Z,50.30
2017-08-16T13:02:07.331Z,51.90
2017-08-16T13:04:34.907Z,51.90
2017-08-16T13:07:02.498Z,51.40
2017-08-16T13:09:30.044Z,50.40
2017-08-16T13:11:57.581Z,50.00
2017-08-16T13:14:25.155Z,50.00
2017-08-16T13:16:52.682Z,50.00
2017-08-16T13:19:20.226Z,49.90
2017-08-16T13:21:48.557Z,50.40
2017-08-16T13:24:16.085Z,50.30
2017-08-16T13:26:43.630Z,50.00
2017-08-16T13:29:11.202Z,49.60
2017-08-16T13:31:38.758Z,49.00
2017-08-16T13:34:06.307Z,49.20
2017-08-16T13:36:34.630Z,49.20
2017-08-16T13:39:02.184Z,49.20
2017-08-16T13:41:29.719Z,50.00
2017-08-16T13:43:57.264Z,49.10
2017-08-16T13:46:25.577Z,48.90
2017-08-16T13:48:53.100Z,48.80
2017-08-16T13:51:20.662Z,48.70
2017-08-16T13:53:48.193Z,50.90
2017-08-16T13:56:15.743Z,50.30
2017-08-16T13:58:43.313Z,48.90
2017-08-16T14:01:10.861Z,50.70
2017-08-16T14:03:38.422Z,51.00
2017-08-16T14:06:05.990Z,51.50
2017-08-16T14:08:33.530Z,51.40
2017-08-16T14:11:01.061Z,50.10
2017-08-16T14:13:29.393Z,50.00
2017-08-16T14:15:56.944Z,50.00
2017-08-16T14:18:24.487Z,49.60
2017-08-16T14:20:52.080Z,50.00
2017-08-16T14:23:19.620Z,49.80
2017-08-16T14:25:48.005Z,50.20
2017-08-16T14:28:15.597Z,50.80
2017-08-16T14:30:43.124Z,51.40
2017-08-16T14:33:10.649Z,50.60
2017-08-16T14:35:39.437Z,50.60
2017-08-16T14:38:07.760Z,51.50
2017-08-16T14:40:35.319Z,51.50
2017-08-16T14:43:02.905Z,52.20
2017-08-16T14:45:30.457Z,51.40
2017-08-16T14:47:57.996Z,49.50
2017-08-16T14:50:25.584Z,52.50
2017-08-16T14:52:53.128Z,52.70
2017-08-16T14:55:20.666Z,53.20
2017-08-16T14:57:49.294Z,50.50
2017-08-16T15:00:16.845Z,50.40
2017-08-16T15:02:44.387Z,51.10
2017-08-16T15:05:11.955Z,51.50
2017-08-16T15:07:39.521Z,51.20
2017-08-16T15:10:07.500Z,51.00
2017-08-16T15:12:35.081Z,51.80
2017-08-16T15:15:02.874Z,51.60
2017-08-16T15:17:30.423Z,52.10
2017-08-16T15:19:57.992Z,53.60
2017-08-16T15:22:25.588Z,51.10
2017-08-16T15:24:53.910Z,52.20
2017-08-16T15:27:21.481Z,52.20
2017-08-16T15:29:49.039Z,53.20
2017-08-16T15:32:16.570Z,51.40
2017-08-16T15:34:44.151Z,50.80
2017-08-16T15:37:11.704Z,51.80
2017-08-16T15:39:39.252Z,51.50
2017-08-16T15:42:06.813Z,51.70
2017-08-16T15:44:34.350Z,52.30
2017-08-16T15:47:02.651Z,52.00
2017-08-16T15:49:30.210Z,52.50
2017-08-16T15:51:57.744Z,54.80
2017-08-16T15:54:25.282Z,52.90
2017-08-16T15:56:52.851Z,54.70
2017-08-16T15:59:20.378Z,53.90
2017-08-16T16:01:47.941Z,53.10
2017-08-16T16:04:15.558Z,53.80
2017-08-16T16:06:43.882Z,51.70
2017-08-16T16:09:11.428Z,51.40
2017-08-16T16:11:38.992Z,52.10
2017-08-16T16:14:06.539Z,55.80
2017-08-16T16:16:34.852Z,53.60
2017-08-16T16:19:02.426Z,53.50
2017-08-16T16:21:29.967Z,51.10
2017-08-16T16:23:57.516Z,51.70
2017-08-16T16:26:25.076Z,52.70
2017-08-16T16:28:52.627Z,52.90
2017-08-16T16:31:20.161Z,53.20
2017-08-16T16:33:47.739Z,52.80
2017-08-16T16:36:15.288Z,57.70
2017-08-16T16:38:43.593Z,57.60
2017-08-16T16:41:11.515Z,57.60
2017-08-16T16:43:39.051Z,58.20
2017-08-16T16:46:06.574Z,56.90
2017-08-16T16:48:34.928Z,55.10
2017-08-16T16:51:02.462Z,55.00
2017-08-16T16:53:30.003Z,55.90
2017-08-16T16:55:57.577Z,56.30
2017-08-16T16:58:25.108Z,54.50
2017-08-16T17:00:52.672Z,55.50
2017-08-16T17:03:20.260Z,55.00
2017-08-16T17:05:47.808Z,55.00
2017-08-16T17:08:15.336Z,56.00
2017-08-16T17:10:42.914Z,55.50
2017-08-16T17:13:11.208Z,54.60
2017-08-16T17:15:38.754Z,54.60
2017-08-16T17:18:07.098Z,55.50
2017-08-16T17:20:34.631Z,55.50
2017-08-16T17:23:02.170Z,56.00
2017-08-16T17:25:29.808Z,55.60
2017-08-16T17:27:58.100Z,55.90
2017-08-16T17:30:26.396Z,55.90
2017-08-16T17:32:53.992Z,55.80
2017-08-16T17:35:21.517Z,56.40
2017-08-16T17:37:49.040Z,56.80
2017-08-16T17:40:16.630Z,58.20
2017-08-16T17:42:44.944Z,58.60
2017-08-16T17:45:12.614Z,58.60
2017-08-16T17:47:40.192Z,60.60
2017-08-16T17:50:07.723Z,59.00
2017-08-16T17:52:35.267Z,60.30
2017-08-16T17:55:02.878Z,60.90
2017-08-16T17:57:30.446Z,61.90
2017-08-16T17:59:57.996Z,60.20
2017-08-16T18:02:25.553Z,59.40
2017-08-16T18:04:53.105Z,58.20
2017-08-16T18:07:20.707Z,58.30
2017-08-16T18:09:48.415Z,58.70
2017-08-16T18:12:15.965Z,61.20
2017-08-16T18:14:43.509Z,62.60
2017-08-16T18:17:11.851Z,62.70
2017-08-16T18:19:39.397Z,62.60
2017-08-16T18:22:06.943Z,62.00
2017-08-16T18:24:34.522Z,64.30
2017-08-16T18:27:02.069Z,63.70
2017-08-16T18:29:29.627Z,62.60
2017-08-16T18:31:57.208Z,62.60
2017-08-16T18:34:24.743Z,62.90
2017-08-16T18:36:52.277Z,62.40
2017-08-16T18:39:20.596Z,60.40
2017-08-16T18:41:48.143Z,61.00
2017-08-16T18:44:15.694Z,61.00
2017-08-16T18:46:44.025Z,61.10
2017-08-16T18:49:11.556Z,61.10
2017-08-16T18:51:39.098Z,61.30
2017-08-16T18:54:07.447Z,61.60
2017-08-16T18:56:34.975Z,61.60
2017-08-16T18:59:02.506Z,61.80
2017-08-16T19:01:30.076Z,62.10
2017-08-16T19:03:57.619Z,62.00
2017-08-16T19:06:25.927Z,64.60
2017-08-16T19:08:53.496Z,64.50
2017-08-16T19:11:21.025Z,65.60
2017-08-16T19:13:49.322Z,66.30
2017-08-16T19:16:16.881Z,66.20
2017-08-16T19:18:44.417Z,66.70
2017-08-16T19:21:12.718Z,64.40
2017-08-16T19:23:40.282Z,64.40
2017-08-16T19:26:07.817Z,65.30
2017-08-16T19:28:36.133Z,63.20
2017-08-16T19:31:03.707Z,62.40
2017-08-16T19:33:31.229Z,62.40
2017-08-16T19:35:59.538Z,62.50
2017-08-16T19:38:27.093Z,62.50
2017-08-16T19:40:54.648Z,62.40
2017-08-16T19:43:22.196Z,63.20
2017-08-16T19:45:50.579Z,66.20
2017-08-16T19:48:18.129Z,66.20
2017-08-16T19:50:46.441Z,67.80
2017-08-16T19:53:13.997Z,67.70
2017-08-16T19:55:41.564Z,68.10
2017-08-16T19:58:09.093Z,69.00
2017-08-16T20:00:37.438Z,69.80
2017-08-16T20:03:04.984Z,69.80
2017-08-16T20:05:32.526Z,70.40
2017-08-16T20:08:00.094Z,70.00
2017-08-16T20:10:27.620Z,70.10
2017-08-16T20:12:55.145Z,70.60
2017-08-16T20:15:22.695Z,71.10
2017-08-16T20:17:50.267Z,70.60
2017-08-16T20:20:17.793Z,70.80
2017-08-16T20:22:45.354Z,70.50
2017-08-16T20:25:12.902Z,70.30
2017-08-16T20:27:41.202Z,70.40
2017-08-16T20:30:08.776Z,70.30
2017-08-16T20:32:36.423Z,70.60
2017-08-16T20:35:03.955Z,71.80
2017-08-16T20:37:32.302Z,72.50
2017-08-16T20:39:59.834Z,71.70
2017-08-16T20:42:27.366Z,71.40
2017-08-16T20:44:54.944Z,71.10
2017-08-16T20:47:22.471Z,71.30
2017-08-16T20:49:50.014Z,70.80
2017-08-16T20:52:17.578Z,71.20
2017-08-16T20:54:45.118Z,71.10
2017-08-16T20:57:12.669Z,71.40
2017-08-16T20:59:40.219Z,71.10
2017-08-16T21:02:07.745Z,71.30
2017-08-16T21:04:36.060Z,71.50
2017-08-16T21:07:03.689Z,71.40
2017-08-16T21:09:32.008Z,71.50
2017-08-16T21:11:59.542Z,71.50
2017-08-16T21:14:27.879Z,72.70
2017-08-16T21:16:55.404Z,72.60
2017-08-16T21:19:22.929Z,71.80
2017-08-16T21:21:51.254Z,71.70
2017-08-16T21:24:18.805Z,71.80
2017-08-16T21:26:46.331Z,71.80
2017-08-16T21:29:14.654Z,72.50
2017-08-16T21:31:42.197Z,72.50
2017-08-16T21:34:09.725Z,72.30
2017-08-16T21:36:37.286Z,71.30
2017-08-16T21:39:04.825Z,69.70
2017-08-16T21:41:32.345Z,70.90
2017-08-16T21:43:59.906Z,70.60
2017-08-16T21:46:27.452Z,70.30
2017-08-16T21:48:55.764Z,71.60
2017-08-16T21:51:23.329Z,72.40
2017-08-16T21:53:50.871Z,72.00
2017-08-16T21:56:18.427Z,71.90
2017-08-16T21:58:46.029Z,71.70
2017-08-16T22:01:13.552Z,72.00
2017-08-16T22:03:41.104Z,72.40
2017-08-16T22:06:09.443Z,70.70
2017-08-16T22:08:36.975Z,70.70
2017-08-16T22:11:04.525Z,70.30
2017-08-16T22:13:32.129Z,70.00
2017-08-16T22:15:59.661Z,69.40
2017-08-16T22:18:27.192Z,68.50
2017-08-16T22:20:55.512Z,67.50
2017-08-16T22:23:23.056Z,67.50
2017-08-16T22:25:50.585Z,67.70
2017-08-16T22:28:18.908Z,67.80
2017-08-16T22:30:46.475Z,67.60
2017-08-16T22:33:13.998Z,68.20
2017-08-16T22:35:42.339Z,71.70
2017-08-16T22:38:09.879Z,71.70
2017-08-16T22:40:37.400Z,71.80
2017-08-16T22:43:05.735Z,72.60
2017-08-16T22:45:33.272Z,72.60
2017-08-16T22:48:00.823Z,72.90
2017-08-16T22:50:28.397Z,73.20
2017-08-16T22:52:56.005Z,73.60
2017-08-16T22:55:23.546Z,73.80
2017-08-16T22:57:51.120Z,73.70
2017-08-16T23:00:18.646Z,73.90
2017-08-16T23:02:46.167Z,74.20
2017-08-16T23:05:14.497Z,73.50
2017-08-16T23:07:42.039Z,73.50
2017-08-16T23:10:09.582Z,73.70
2017-08-16T23:12:37.166Z,73.40
2017-08-16T23:15:04.698Z,73.40
2017-08-16T23:17:32.989Z,75.40
2017-08-16T23:20:00.558Z,75.40
2017-08-16T23:22:28.092Z,75.80
2017-08-16T23:24:56.386Z,76.50
2017-08-16T23:27:23.962Z,76.10
2017-08-16T23:29:51.494Z,76.30
2017-08-16T23:32:19.815Z,76.50
2017-08-16T23:34:47.370Z,76.40
2017-08-16T23:37:14.902Z,76.40
2017-08-16T23:39:43.202Z,76.60
2017-08-16T23:42:10.775Z,76.50
2017-08-16T23:44:38.334Z,76.70
2017-08-16T23:47:05.862Z,76.70
2017-08-16T23:49:34.185Z,76.70
2017-08-16T23:52:01.708Z,76.70
2017-08-16T23:54:30.024Z,77.30
2017-08-16T23:56:57.598Z,77.30
2017-08-16T23:59:25.147Z,77.10
